sensor_id;sensor_type;location;lat;lon;timestamp;pressure;altitude;pressure_sealevel;temperature;humidity
57442;BME280;43284;47.042;15.498;2022-07-30T00:00:10;96937.69;;;18.04;96.36
57442;BME280;43284;47.042;15.498;2022-07-30T00:02:37;96935.03;;;18.04;95.17
57442;BME280;43284;47.042;15.498;2022-07-30T00:05:04;96931.69;;;18.02;95.30
57442;BME280;43284;47.042;15.498;2022-07-30T00:07:32;96932.91;;;17.98;95.22
57442;BME280;43284;47.042;15.498;2022-07-30T00:10:02;96935.78;;;17.95;96.01
57442;BME280;43284;47.042;15.498;2022-07-30T00:12:29;96944.56;;;17.95;95.98
57442;BME280;43284;47.042;15.498;2022-07-30T00:14:56;96937.72;;;17.92;95.68
57442;BME280;43284;47.042;15.498;2022-07-30T00:17:24;96931.00;;;17.88;95.35
57442;BME280;43284;47.042;15.498;2022-07-30T00:19:51;96928.59;;;17.85;95.70
57442;BME280;43284;47.042;15.498;2022-07-30T00:22:18;96935.00;;;17.83;95.99
57442;BME280;43284;47.042;15.498;2022-07-30T00:24:45;96931.72;;;17.79;96.05
57442;BME280;43284;47.042;15.498;2022-07-30T00:27:13;96930.75;;;17.80;96.84
57442;BME280;43284;47.042;15.498;2022-07-30T00:29:40;96936.53;;;17.85;98.07
57442;BME280;43284;47.042;15.498;2022-07-30T00:32:07;96937.53;;;17.84;97.75
57442;BME280;43284;47.042;15.498;2022-07-30T00:34:34;96930.53;;;17.83;97.76
57442;BME280;43284;47.042;15.498;2022-07-30T00:37:02;96935.44;;;17.88;98.59
57442;BME280;43284;47.042;15.498;2022-07-30T00:39:30;96937.00;;;17.90;98.27
57442;BME280;43284;47.042;15.498;2022-07-30T00:42:00;96938.56;;;17.93;97.99
57442;BME280;43284;47.042;15.498;2022-07-30T00:44:28;96939.53;;;17.92;97.93
57442;BME280;43284;47.042;15.498;2022-07-30T00:46:56;96942.16;;;17.92;98.25
57442;BME280;43284;47.042;15.498;2022-07-30T00:49:23;96934.13;;;17.94;97.83
57442;BME280;43284;47.042;15.498;2022-07-30T00:51:51;96940.13;;;17.96;98.09
57442;BME280;43284;47.042;15.498;2022-07-30T00:54:19;96937.31;;;17.97;98.34
57442;BME280;43284;47.042;15.498;2022-07-30T00:56:50;96934.84;;;17.96;98.09
57442;BME280;43284;47.042;15.498;2022-07-30T00:59:18;96937.31;;;17.97;98.22
57442;BME280;43284;47.042;15.498;2022-07-30T01:01:45;96937.09;;;18.00;97.61
57442;BME280;43284;47.042;15.498;2022-07-30T01:04:12;96939.84;;;17.99;97.60
57442;BME280;43284;47.042;15.498;2022-07-30T01:06:39;96940.25;;;17.94;96.69
57442;BME280;43284;47.042;15.498;2022-07-30T01:09:07;96934.22;;;17.92;96.75
57442;BME280;43284;47.042;15.498;2022-07-30T01:11:40;96929.78;;;17.92;97.53
57442;BME280;43284;47.042;15.498;2022-07-30T01:14:08;96918.25;;;17.94;97.70
57442;BME280;43284;47.042;15.498;2022-07-30T01:16:37;96919.69;;;17.98;97.79
57442;BME280;43284;47.042;15.498;2022-07-30T01:19:18;96917.16;;;17.96;97.69
57442;BME280;43284;47.042;15.498;2022-07-30T01:22:15;96916.31;;;17.96;97.70
57442;BME280;43284;47.042;15.498;2022-07-30T01:24:54;96910.19;;;17.95;98.17
57442;BME280;43284;47.042;15.498;2022-07-30T01:27:24;96907.28;;;17.98;98.05
57442;BME280;43284;47.042;15.498;2022-07-30T01:29:54;96902.94;;;17.97;98.18
57442;BME280;43284;47.042;15.498;2022-07-30T01:32:23;96906.44;;;17.98;98.49
57442;BME280;43284;47.042;15.498;2022-07-30T01:34:52;96903.94;;;17.96;97.63
57442;BME280;43284;47.042;15.498;2022-07-30T01:37:22;96912.13;;;17.93;97.82
57442;BME280;43284;47.042;15.498;2022-07-30T01:39:52;96908.63;;;17.92;98.52
57442;BME280;43284;47.042;15.498;2022-07-30T01:42:20;96910.44;;;17.92;98.11
57442;BME280;43284;47.042;15.498;2022-07-30T01:44:51;96904.44;;;17.90;97.72
57442;BME280;43284;47.042;15.498;2022-07-30T01:47:19;96903.59;;;17.89;98.31
57442;BME280;43284;47.042;15.498;2022-07-30T01:49:48;96898.31;;;17.89;98.56
57442;BME280;43284;47.042;15.498;2022-07-30T01:52:17;96892.91;;;17.91;99.02
57442;BME280;43284;47.042;15.498;2022-07-30T01:54:47;96900.84;;;17.91;98.53
57442;BME280;43284;47.042;15.498;2022-07-30T01:57:18;96900.84;;;17.91;98.66
57442;BME280;43284;47.042;15.498;2022-07-30T01:59:49;96900.84;;;17.91;98.07
57442;BME280;43284;47.042;15.498;2022-07-30T02:02:18;96899.25;;;17.88;97.70
57442;BME280;43284;47.042;15.498;2022-07-30T02:04:45;96899.25;;;17.88;98.37
57442;BME280;43284;47.042;15.498;2022-07-30T02:07:34;96905.25;;;17.90;98.41
57442;BME280;43284;47.042;15.498;2022-07-30T02:12:52;96905.41;;;17.89;97.59
57442;BME280;43284;47.042;15.498;2022-07-30T02:15:32;96902.03;;;17.87;97.60
57442;BME280;43284;47.042;15.498;2022-07-30T02:18:12;96900.34;;;17.86;97.58
57442;BME280;43284;47.042;15.498;2022-07-30T02:20:44;96897.84;;;17.84;98.19
57442;BME280;43284;47.042;15.498;2022-07-30T02:23:16;96899.53;;;17.85;98.37
57442;BME280;43284;47.042;15.498;2022-07-30T02:25:49;96901.78;;;17.90;99.00
57442;BME280;43284;47.042;15.498;2022-07-30T02:28:19;96903.31;;;17.92;99.38
57442;BME280;43284;47.042;15.498;2022-07-30T02:30:54;96907.56;;;17.95;99.29
57442;BME280;43284;47.042;15.498;2022-07-30T02:33:30;96902.81;;;17.99;99.56
57442;BME280;43284;47.042;15.498;2022-07-30T02:36:01;96907.63;;;18.05;100.00
57442;BME280;43284;47.042;15.498;2022-07-30T02:38:30;96925.03;;;18.07;100.00
57442;BME280;43284;47.042;15.498;2022-07-30T02:40:59;96945.09;;;18.10;100.00
57442;BME280;43284;47.042;15.498;2022-07-30T02:43:29;96954.84;;;18.09;100.00
57442;BME280;43284;47.042;15.498;2022-07-30T02:46:00;96965.44;;;18.09;100.00
57442;BME280;43284;47.042;15.498;2022-07-30T02:48:31;96961.13;;;18.08;100.00
57442;BME280;43284;47.042;15.498;2022-07-30T02:51:01;96966.41;;;18.08;100.00
57442;BME280;43284;47.042;15.498;2022-07-30T02:53:30;96965.69;;;18.06;100.00
57442;BME280;43284;47.042;15.498;2022-07-30T02:55:59;96972.66;;;18.07;100.00
57442;BME280;43284;47.042;15.498;2022-07-30T02:58:30;96984.06;;;18.08;100.00
57442;BME280;43284;47.042;15.498;2022-07-30T03:00:58;96975.19;;;18.09;100.00
57442;BME280;43284;47.042;15.498;2022-07-30T03:03:27;96977.72;;;18.10;100.00
57442;BME280;43284;47.042;15.498;2022-07-30T03:05:58;96981.31;;;18.09;99.89
57442;BME280;43284;47.042;15.498;2022-07-30T03:08:31;96975.91;;;18.11;100.00
57442;BME280;43284;47.042;15.498;2022-07-30T03:10:59;96957.50;;;18.09;99.36
57442;BME280;43284;47.042;15.498;2022-07-30T03:13:29;96965.03;;;18.14;100.00
57442;BME280;43284;47.042;15.498;2022-07-30T03:15:58;96964.09;;;18.15;100.00
57442;BME280;43284;47.042;15.498;2022-07-30T03:18:32;96974.41;;;18.18;100.00
57442;BME280;43284;47.042;15.498;2022-07-30T03:21:00;96978.03;;;18.17;100.00
57442;BME280;43284;47.042;15.498;2022-07-30T03:23:33;96981.31;;;18.09;99.69
57442;BME280;43284;47.042;15.498;2022-07-30T03:26:05;96977.94;;;18.07;99.63
57442;BME280;43284;47.042;15.498;2022-07-30T03:28:36;96972.09;;;18.04;99.74
57442;BME280;43284;47.042;15.498;2022-07-30T03:31:08;96964.97;;;18.04;99.72
57442;BME280;43284;47.042;15.498;2022-07-30T03:33:37;96954.41;;;18.04;99.56
57442;BME280;43284;47.042;15.498;2022-07-30T03:36:06;96970.25;;;18.04;99.98
57442;BME280;43284;47.042;15.498;2022-07-30T03:38:42;96969.44;;;18.04;100.00
57442;BME280;43284;47.042;15.498;2022-07-30T03:41:11;96971.94;;;18.05;100.00
57442;BME280;43284;47.042;15.498;2022-07-30T03:43:40;96973.47;;;18.08;100.00
57442;BME280;43284;47.042;15.498;2022-07-30T03:46:09;96960.25;;;18.08;100.00
57442;BME280;43284;47.042;15.498;2022-07-30T03:48:39;96966.53;;;18.07;100.00
57442;BME280;43284;47.042;15.498;2022-07-30T03:51:07;96965.09;;;18.03;100.00
57442;BME280;43284;47.042;15.498;2022-07-30T03:53:36;96965.34;;;18.00;100.00
57442;BME280;43284;47.042;15.498;2022-07-30T03:56:06;96964.38;;;18.01;100.00
57442;BME280;43284;47.042;15.498;2022-07-30T03:58:34;96973.84;;;18.03;100.00
57442;BME280;43284;47.042;15.498;2022-07-30T04:01:03;96981.69;;;18.05;99.87
57442;BME280;43284;47.042;15.498;2022-07-30T04:03:32;96978.06;;;18.06;99.63
57442;BME280;43284;47.042;15.498;2022-07-30T04:06:00;96979.16;;;18.03;99.94
57442;BME280;43284;47.042;15.498;2022-07-30T04:08:27;96978.69;;;17.98;99.55
57442;BME280;43284;47.042;15.498;2022-07-30T04:10:55;96980.88;;;17.93;99.39
57442;BME280;43284;47.042;15.498;2022-07-30T04:13:24;96988.09;;;17.91;99.77
57442;BME280;43284;47.042;15.498;2022-07-30T04:18:23;96996.25;;;17.88;100.00
57442;BME280;43284;47.042;15.498;2022-07-30T04:20:54;96999.88;;;17.87;100.00
57442;BME280;43284;47.042;15.498;2022-07-30T04:23:22;97000.97;;;17.84;100.00
57442;BME280;43284;47.042;15.498;2022-07-30T04:25:50;97004.56;;;17.83;100.00
57442;BME280;43284;47.042;15.498;2022-07-30T04:28:19;97009.75;;;17.85;100.00
57442;BME280;43284;47.042;15.498;2022-07-30T04:30:46;97013.22;;;17.85;100.00
57442;BME280;43284;47.042;15.498;2022-07-30T04:33:14;97024.63;;;17.86;100.00
57442;BME280;43284;47.042;15.498;2022-07-30T04:35:41;97025.25;;;17.89;100.00
57442;BME280;43284;47.042;15.498;2022-07-30T04:38:09;97023.31;;;17.91;100.00
57442;BME280;43284;47.042;15.498;2022-07-30T04:40:36;97024.25;;;17.90;100.00
57442;BME280;43284;47.042;15.498;2022-07-30T04:43:03;97019.94;;;17.89;100.00
57442;BME280;43284;47.042;15.498;2022-07-30T04:45:30;97024.53;;;17.87;100.00
57442;BME280;43284;47.042;15.498;2022-07-30T04:47:58;97031.47;;;17.88;100.00
57442;BME280;43284;47.042;15.498;2022-07-30T04:50:27;97029.94;;;17.86;100.00
57442;BME280;43284;47.042;15.498;2022-07-30T04:52:55;97029.94;;;17.86;100.00
57442;BME280;43284;47.042;15.498;2022-07-30T04:55:23;97028.16;;;17.86;100.00
57442;BME280;43284;47.042;15.498;2022-07-30T04:57:53;97024.78;;;17.84;100.00
57442;BME280;43284;47.042;15.498;2022-07-30T05:00:21;97027.44;;;17.84;100.00
57442;BME280;43284;47.042;15.498;2022-07-30T05:02:49;97032.47;;;17.87;100.00
57442;BME280;43284;47.042;15.498;2022-07-30T05:05:18;97034.00;;;17.90;100.00
57442;BME280;43284;47.042;15.498;2022-07-30T05:07:46;97036.44;;;17.93;100.00
57442;BME280;43284;47.042;15.498;2022-07-30T05:10:14;97036.06;;;17.98;100.00
57442;BME280;43284;47.042;15.498;2022-07-30T05:12:44;97034.25;;;17.98;100.00
57442;BME280;43284;47.042;15.498;2022-07-30T05:15:12;97041.09;;;18.01;100.00
57442;BME280;43284;47.042;15.498;2022-07-30T05:17:40;97044.81;;;17.98;100.00
57442;BME280;43284;47.042;15.498;2022-07-30T05:20:07;97042.06;;;18.00;100.00
57442;BME280;43284;47.042;15.498;2022-07-30T05:22:35;97041.69;;;18.04;100.00
57442;BME280;43284;47.042;15.498;2022-07-30T05:25:03;97030.97;;;18.06;100.00
57442;BME280;43284;47.042;15.498;2022-07-30T05:27:31;97034.31;;;18.08;100.00
57442;BME280;43284;47.042;15.498;2022-07-30T05:29:58;97033.50;;;18.07;100.00
57442;BME280;43284;47.042;15.498;2022-07-30T05:32:25;97030.00;;;18.07;100.00
57442;BME280;43284;47.042;15.498;2022-07-30T05:34:53;97031.69;;;18.08;100.00
57442;BME280;43284;47.042;15.498;2022-07-30T05:37:24;97030.84;;;18.07;100.00
57442;BME280;43284;47.042;15.498;2022-07-30T05:39:52;97031.69;;;18.08;100.00
57442;BME280;43284;47.042;15.498;2022-07-30T05:42:21;97031.94;;;18.05;100.00
57442;BME280;43284;47.042;15.498;2022-07-30T05:44:49;97034.69;;;18.03;100.00
57442;BME280;43284;47.042;15.498;2022-07-30T05:47:16;97034.59;;;18.05;100.00
57442;BME280;43284;47.042;15.498;2022-07-30T05:49:46;97036.25;;;18.06;100.00
57442;BME280;43284;47.042;15.498;2022-07-30T05:52:14;97051.28;;;18.05;100.00
57442;BME280;43284;47.042;15.498;2022-07-30T05:54:43;97046.00;;;18.05;100.00
57442;BME280;43284;47.042;15.498;2022-07-30T05:57:10;97052.00;;;18.07;100.00
57442;BME280;43284;47.042;15.498;2022-07-30T05:59:37;97055.38;;;18.09;100.00
57442;BME280;43284;47.042;15.498;2022-07-30T06:02:05;97062.38;;;18.10;100.00
57442;BME280;43284;47.042;15.498;2022-07-30T06:04:33;97060.41;;;18.12;100.00
57442;BME280;43284;47.042;15.498;2022-07-30T06:07:01;97063.66;;;18.16;100.00
57442;BME280;43284;47.042;15.498;2022-07-30T06:09:28;97064.25;;;18.20;100.00
57442;BME280;43284;47.042;15.498;2022-07-30T06:11:55;97064.09;;;18.21;100.00
57442;BME280;43284;47.042;15.498;2022-07-30T06:14:22;97064.00;;;18.23;100.00
57442;BME280;43284;47.042;15.498;2022-07-30T06:16:50;97060.50;;;18.22;100.00
57442;BME280;43284;47.042;15.498;2022-07-30T06:19:17;97059.69;;;18.22;100.00
57442;BME280;43284;47.042;15.498;2022-07-30T06:21:45;97067.25;;;18.26;100.00
57442;BME280;43284;47.042;15.498;2022-07-30T06:24:29;97069.78;;;18.28;100.00
57442;BME280;43284;47.042;15.498;2022-07-30T06:26:57;97074.91;;;18.29;100.00
57442;BME280;43284;47.042;15.498;2022-07-30T06:29:24;97074.91;;;18.29;100.00
57442;BME280;43284;47.042;15.498;2022-07-30T06:31:52;97069.63;;;18.29;100.00
57442;BME280;43284;47.042;15.498;2022-07-30T06:34:19;97076.63;;;18.30;100.00
57442;BME280;43284;47.042;15.498;2022-07-30T06:36:46;97075.63;;;18.31;100.00
57442;BME280;43284;47.042;15.498;2022-07-30T06:39:14;97076.47;;;18.32;100.00
57442;BME280;43284;47.042;15.498;2022-07-30T06:41:41;97076.47;;;18.32;100.00
57442;BME280;43284;47.042;15.498;2022-07-30T06:44:09;97079.72;;;18.36;100.00
57442;BME280;43284;47.042;15.498;2022-07-30T06:46:36;97074.88;;;18.41;100.00
57442;BME280;43284;47.042;15.498;2022-07-30T06:49:04;97084.63;;;18.40;100.00
57442;BME280;43284;47.042;15.498;2022-07-30T06:51:31;97089.94;;;18.40;100.00
57442;BME280;43284;47.042;15.498;2022-07-30T06:53:59;97089.22;;;18.38;100.00
57442;BME280;43284;47.042;15.498;2022-07-30T06:56:26;97093.78;;;18.36;99.81
57442;BME280;43284;47.042;15.498;2022-07-30T06:58:53;97090.19;;;18.37;99.60
57442;BME280;43284;47.042;15.498;2022-07-30T07:01:20;97092.84;;;18.37;99.57
57442;BME280;43284;47.042;15.498;2022-07-30T07:03:49;97089.69;;;18.32;98.34
57442;BME280;43284;47.042;15.498;2022-07-30T07:06:16;97095.00;;;18.32;98.33
57442;BME280;43284;47.042;15.498;2022-07-30T07:08:43;97094.16;;;18.31;98.36
57442;BME280;43284;47.042;15.498;2022-07-30T07:11:10;97094.28;;;18.30;98.08
57442;BME280;43284;47.042;15.498;2022-07-30T07:13:38;97091.63;;;18.30;98.35
57442;BME280;43284;47.042;15.498;2022-07-30T07:16:05;97087.78;;;18.34;98.87
57442;BME280;43284;47.042;15.498;2022-07-30T07:18:32;97095.47;;;18.37;98.54
57442;BME280;43284;47.042;15.498;2022-07-30T07:21:00;97088.63;;;18.35;97.93
57442;BME280;43284;47.042;15.498;2022-07-30T07:23:28;97090.41;;;18.34;97.36
57442;BME280;43284;47.042;15.498;2022-07-30T07:25:56;97088.50;;;18.36;97.48
57442;BME280;43284;47.042;15.498;2022-07-30T07:28:23;97093.66;;;18.38;97.96
57442;BME280;43284;47.042;15.498;2022-07-30T07:30:51;97087.41;;;18.39;97.90
57442;BME280;43284;47.042;15.498;2022-07-30T07:33:19;97085.34;;;18.42;97.30
57442;BME280;43284;47.042;15.498;2022-07-30T07:35:47;97087.28;;;18.40;98.49
57442;BME280;43284;47.042;15.498;2022-07-30T07:38:14;97092.84;;;18.37;98.09
57442;BME280;43284;47.042;15.498;2022-07-30T07:40:41;97098.34;;;18.34;97.99
57442;BME280;43284;47.042;15.498;2022-07-30T07:43:08;97094.38;;;18.40;99.25
57442;BME280;43284;47.042;15.498;2022-07-30T07:45:36;97093.56;;;18.39;98.33
57442;BME280;43284;47.042;15.498;2022-07-30T07:48:04;97090.31;;;18.36;98.72
57442;BME280;43284;47.042;15.498;2022-07-30T07:50:31;97089.09;;;18.40;98.96
57442;BME280;43284;47.042;15.498;2022-07-30T07:53:00;97087.06;;;18.43;98.14
57442;BME280;43284;47.042;15.498;2022-07-30T07:55:27;97083.31;;;18.46;97.79
57442;BME280;43284;47.042;15.498;2022-07-30T07:57:55;97084.03;;;18.48;98.06
57442;BME280;43284;47.042;15.498;2022-07-30T08:00:23;97084.34;;;18.55;98.08
57442;BME280;43284;47.042;15.498;2022-07-30T08:02:52;97084.69;;;18.61;98.72
57442;BME280;43284;47.042;15.498;2022-07-30T08:05:20;97085.84;;;18.68;98.34
57442;BME280;43284;47.042;15.498;2022-07-30T08:07:47;97087.88;;;18.76;98.83
57442;BME280;43284;47.042;15.498;2022-07-30T08:10:14;97096.19;;;18.83;99.11
57442;BME280;43284;47.042;15.498;2022-07-30T08:12:42;97091.84;;;18.82;98.62
57442;BME280;43284;47.042;15.498;2022-07-30T08:15:10;97105.81;;;18.84;98.48
57442;BME280;43284;47.042;15.498;2022-07-30T08:17:42;97103.88;;;18.86;98.46
57442;BME280;43284;47.042;15.498;2022-07-30T08:20:11;97105.19;;;18.91;98.45
57442;BME280;43284;47.042;15.498;2022-07-30T08:22:39;97106.97;;;18.91;97.82
57442;BME280;43284;47.042;15.498;2022-07-30T08:25:07;97103.47;;;18.90;96.92
57442;BME280;43284;47.042;15.498;2022-07-30T08:27:35;97107.13;;;18.89;96.13
57442;BME280;43284;47.042;15.498;2022-07-30T08:30:07;97100.59;;;18.93;95.92
57442;BME280;43284;47.042;15.498;2022-07-30T08:32:35;97111.31;;;18.92;95.52
57442;BME280;43284;47.042;15.498;2022-07-30T08:35:03;97104.78;;;18.96;94.06
57442;BME280;43284;47.042;15.498;2022-07-30T08:37:31;97107.19;;;18.99;94.18
57442;BME280;43284;47.042;15.498;2022-07-30T08:39:58;97104.03;;;19.05;94.19
57442;BME280;43284;47.042;15.498;2022-07-30T08:42:26;97106.88;;;19.13;95.13
57442;BME280;43284;47.042;15.498;2022-07-30T08:44:55;97108.03;;;19.21;95.06
57442;BME280;43284;47.042;15.498;2022-07-30T08:47:27;97101.63;;;19.23;94.58
57442;BME280;43284;47.042;15.498;2022-07-30T08:49:59;97101.16;;;19.39;95.85
57442;BME280;43284;47.042;15.498;2022-07-30T08:52:35;97097.41;;;19.42;93.47
57442;BME280;43284;47.042;15.498;2022-07-30T08:55:07;97102.19;;;19.48;93.49
57442;BME280;43284;47.042;15.498;2022-07-30T08:57:35;97109.16;;;19.49;91.26
57442;BME280;43284;47.042;15.498;2022-07-30T09:00:06;97101.41;;;19.57;90.99
57442;BME280;43284;47.042;15.498;2022-07-30T09:02:34;97111.91;;;19.68;91.29
57442;BME280;43284;47.042;15.498;2022-07-30T09:05:01;97104.16;;;19.76;91.38
57442;BME280;43284;47.042;15.498;2022-07-30T09:07:28;97103.78;;;19.81;90.33
57442;BME280;43284;47.042;15.498;2022-07-30T09:09:58;97102.50;;;19.85;88.40
57442;BME280;43284;47.042;15.498;2022-07-30T09:12:46;97107.16;;;19.93;86.89
57442;BME280;43284;47.042;15.498;2022-07-30T09:15:16;97102.03;;;20.01;85.76
57442;BME280;43284;47.042;15.498;2022-07-30T09:18:04;97100.69;;;20.16;86.97
57442;BME280;43284;47.042;15.498;2022-07-30T09:20:36;97104.75;;;20.30;87.40
57442;BME280;43284;47.042;15.498;2022-07-30T09:23:05;97100.72;;;20.36;85.94
57442;BME280;43284;47.042;15.498;2022-07-30T09:25:45;97101.97;;;20.42;84.16
57442;BME280;43284;47.042;15.498;2022-07-30T09:28:13;97098.78;;;20.48;85.06
57442;BME280;43284;47.042;15.498;2022-07-30T09:30:48;97091.41;;;20.61;86.41
57442;BME280;43284;47.042;15.498;2022-07-30T09:33:35;97091.25;;;20.72;85.34
57442;BME280;43284;47.042;15.498;2022-07-30T09:36:05;97091.00;;;20.85;85.23
57442;BME280;43284;47.042;15.498;2022-07-30T09:38:50;97090.44;;;20.91;86.82
57442;BME280;43284;47.042;15.498;2022-07-30T09:41:41;97091.53;;;20.98;85.14
57442;BME280;43284;47.042;15.498;2022-07-30T09:44:08;97084.69;;;20.96;83.79
57442;BME280;43284;47.042;15.498;2022-07-30T09:46:45;97083.16;;;20.93;82.37
57442;BME280;43284;47.042;15.498;2022-07-30T09:49:19;97080.47;;;21.13;85.72
57442;BME280;43284;47.042;15.498;2022-07-30T09:51:47;97083.81;;;21.25;86.08
57442;BME280;43284;47.042;15.498;2022-07-30T09:54:15;97084.50;;;21.27;83.86
57442;BME280;43284;47.042;15.498;2022-07-30T09:56:42;97080.97;;;21.36;83.85
57442;BME280;43284;47.042;15.498;2022-07-30T09:59:31;97085.63;;;21.44;84.87
57442;BME280;43284;47.042;15.498;2022-07-30T10:01:58;97080.13;;;21.55;84.69
57442;BME280;43284;47.042;15.498;2022-07-30T10:04:27;97088.25;;;21.53;81.28
57442;BME280;43284;47.042;15.498;2022-07-30T10:06:56;97088.25;;;21.53;81.10
57442;BME280;43284;47.042;15.498;2022-07-30T10:09:26;97088.22;;;21.63;82.99
57442;BME280;43284;47.042;15.498;2022-07-30T10:11:55;97085.84;;;21.40;79.57
57442;BME280;43284;47.042;15.498;2022-07-30T10:14:28;97083.47;;;21.57;81.73
57442;BME280;43284;47.042;15.498;2022-07-30T10:16:57;97081.81;;;21.56;80.46
57442;BME280;43284;47.042;15.498;2022-07-30T10:19:25;97078.34;;;21.46;77.92
57442;BME280;43284;47.042;15.498;2022-07-30T10:21:53;97083.03;;;21.62;81.02
57442;BME280;43284;47.042;15.498;2022-07-30T10:24:24;97087.78;;;21.58;78.21
57442;BME280;43284;47.042;15.498;2022-07-30T10:26:53;97071.69;;;21.59;78.28
57442;BME280;43284;47.042;15.498;2022-07-30T10:29:20;97079.66;;;21.69;79.79
57442;BME280;43284;47.042;15.498;2022-07-30T10:31:49;97077.03;;;21.59;77.54
57442;BME280;43284;47.042;15.498;2022-07-30T10:34:19;97078.81;;;21.69;77.04
57442;BME280;43284;47.042;15.498;2022-07-30T10:36:54;97078.66;;;21.70;78.89
57442;BME280;43284;47.042;15.498;2022-07-30T10:39:41;97083.44;;;21.67;77.84
57442;BME280;43284;47.042;15.498;2022-07-30T10:42:32;97079.09;;;21.66;77.60
57442;BME280;43284;47.042;15.498;2022-07-30T10:45:49;97071.50;;;21.71;77.29
57442;BME280;43284;47.042;15.498;2022-07-30T10:48:21;97071.25;;;21.74;79.62
57442;BME280;43284;47.042;15.498;2022-07-30T10:50:55;97080.59;;;21.78;81.21
57442;BME280;43284;47.042;15.498;2022-07-30T10:53:42;97081.72;;;21.75;77.32
57442;BME280;43284;47.042;15.498;2022-07-30T10:56:21;97073.22;;;21.72;76.29
57442;BME280;43284;47.042;15.498;2022-07-30T10:59:07;97082.31;;;21.69;77.02
57442;BME280;43284;47.042;15.498;2022-07-30T11:04:26;97076.84;;;21.71;77.51
57442;BME280;43284;47.042;15.498;2022-07-30T11:09:51;97084.28;;;21.67;77.53
57442;BME280;43284;47.042;15.498;2022-07-30T11:15:09;97077.13;;;21.68;77.14
57442;BME280;43284;47.042;15.498;2022-07-30T11:18:03;97081.63;;;21.67;79.49
57442;BME280;43284;47.042;15.498;2022-07-30T11:20:31;97080.81;;;21.57;79.87
57442;BME280;43284;47.042;15.498;2022-07-30T11:25:56;97084.47;;;21.56;80.28
57442;BME280;43284;47.042;15.498;2022-07-30T11:28:44;97081.38;;;21.51;78.57
57442;BME280;43284;47.042;15.498;2022-07-30T11:31:29;97083.91;;;21.52;79.05
57442;BME280;43284;47.042;15.498;2022-07-30T11:37:09;97080.38;;;21.62;77.22
57442;BME280;43284;47.042;15.498;2022-07-30T11:40:06;97087.53;;;21.51;76.49
57442;BME280;43284;47.042;15.498;2022-07-30T11:42:36;97080.69;;;21.58;79.51
57442;BME280;43284;47.042;15.498;2022-07-30T11:47:47;97077.78;;;21.79;78.37
57442;BME280;43284;47.042;15.498;2022-07-30T11:50:26;97074.16;;;21.80;79.03
57442;BME280;43284;47.042;15.498;2022-07-30T11:53:02;97070.69;;;21.98;76.99
57442;BME280;43284;47.042;15.498;2022-07-30T11:55:34;97074.88;;;22.00;79.65
57442;BME280;43284;47.042;15.498;2022-07-30T11:58:30;97071.09;;;22.03;78.95
57442;BME280;43284;47.042;15.498;2022-07-30T12:01:04;97071.06;;;22.13;79.52
57442;BME280;43284;47.042;15.498;2022-07-30T12:03:32;97070.50;;;22.09;77.75
57442;BME280;43284;47.042;15.498;2022-07-30T12:06:05;97069.50;;;22.10;80.45
57442;BME280;43284;47.042;15.498;2022-07-30T12:08:40;97069.66;;;22.09;80.02
57442;BME280;43284;47.042;15.498;2022-07-30T12:11:08;97068.97;;;22.07;79.58
57442;BME280;43284;47.042;15.498;2022-07-30T12:13:37;97067.34;;;21.96;74.93
57442;BME280;43284;47.042;15.498;2022-07-30T12:16:10;97062.53;;;21.99;75.75
57442;BME280;43284;47.042;15.498;2022-07-30T12:18:37;97058.78;;;22.02;75.35
57442;BME280;43284;47.042;15.498;2022-07-30T12:21:06;97048.28;;;22.18;76.77
57442;BME280;43284;47.042;15.498;2022-07-30T12:23:35;97056.66;;;22.33;77.67
57442;BME280;43284;47.042;15.498;2022-07-30T12:26:02;97051.47;;;22.32;73.68
57442;BME280;43284;47.042;15.498;2022-07-30T12:28:31;97048.34;;;22.36;74.52
57442;BME280;43284;47.042;15.498;2022-07-30T12:31:00;97047.97;;;22.49;75.79
57442;BME280;43284;47.042;15.498;2022-07-30T12:33:32;97045.84;;;22.35;72.01
57442;BME280;43284;47.042;15.498;2022-07-30T12:35:59;97048.44;;;22.45;74.85
57442;BME280;43284;47.042;15.498;2022-07-30T12:38:27;97043.47;;;22.50;70.91
57442;BME280;43284;47.042;15.498;2022-07-30T12:41:03;97049.19;;;22.55;72.20
57442;BME280;43284;47.042;15.498;2022-07-30T12:43:52;97050.41;;;22.60;70.83
57442;BME280;43284;47.042;15.498;2022-07-30T12:46:25;97043.50;;;22.68;69.64
57442;BME280;43284;47.042;15.498;2022-07-30T12:49:01;97040.16;;;22.66;70.47
57442;BME280;43284;47.042;15.498;2022-07-30T12:51:48;97035.53;;;22.76;72.04
57442;BME280;43284;47.042;15.498;2022-07-30T12:54:20;97034.72;;;22.75;72.07
57442;BME280;43284;47.042;15.498;2022-07-30T12:56:57;97023.34;;;22.91;74.68
57442;BME280;43284;47.042;15.498;2022-07-30T12:59:26;97023.72;;;22.96;74.67
57442;BME280;43284;47.042;15.498;2022-07-30T13:01:54;97028.88;;;22.98;72.42
57442;BME280;43284;47.042;15.498;2022-07-30T13:04:23;97026.16;;;23.08;73.67
57442;BME280;43284;47.042;15.498;2022-07-30T13:07:04;97028.56;;;23.19;72.55
57442;BME280;43284;47.042;15.498;2022-07-30T13:09:32;97021.59;;;23.26;69.90
57442;BME280;43284;47.042;15.498;2022-07-30T13:12:00;97026.16;;;23.34;70.72
57442;BME280;43284;47.042;15.498;2022-07-30T13:14:28;97026.00;;;23.35;68.85
57442;BME280;43284;47.042;15.498;2022-07-30T13:16:56;97020.97;;;23.32;69.74
57442;BME280;43284;47.042;15.498;2022-07-30T13:19:25;97014.97;;;23.30;69.30
57442;BME280;43284;47.042;15.498;2022-07-30T13:21:53;97018.78;;;23.28;71.35
57442;BME280;43284;47.042;15.498;2022-07-30T13:24:21;97010.72;;;23.19;68.64
57442;BME280;43284;47.042;15.498;2022-07-30T13:26:49;97008.88;;;23.12;68.99